Time;durP1;ratioP1;P1;durP2;ratioP2;P2;SDS_P1;SDS_P2;PMS_P1;PMS_P2;Temp;Humidity;BMP_temperature;BMP_pressure;BME280_temperature;BME280_humidity;BME280_pressure;Samples;Min_cycle;Max_cycle;Signal;HPM_P1;HPM_P2
2023/04/09 00:02:03;;;;;;;9.88;9.48;;;;;;;;;;4249036;28;20143;-62
2023/04/09 00:04:23;;;;;;;12.70;11.98;;;;;;;;;;4243345;28;20043;-62
2023/04/09 00:06:43;;;;;;;14.75;13.77;;;;;;;;;;4245499;28;20369;-62
2023/04/09 00:09:04;;;;;;;15.90;14.85;;;;;;;;;;4241944;28;20096;-62
2023/04/09 00:11:24;;;;;;;15.80;14.90;;;;;;;;;;4246308;28;20070;-62
2023/04/09 00:13:45;;;;;;;15.32;14.40;;;;;;;;;;4250270;28;20042;-62
2023/04/09 00:16:06;;;;;;;13.85;12.95;;;;;;;;;;4246173;28;20073;-62
2023/04/09 00:18:26;;;;;;;13.43;12.75;;;;;;;;;;4249451;28;20298;-62
2023/04/09 00:20:47;;;;;;;14.98;14.27;;;;;;;;;;4243393;28;20101;-62
2023/04/09 00:23:07;;;;;;;13.98;12.82;;;;;;;;;;4249295;28;20050;-62
2023/04/09 00:25:27;;;;;;;14.93;13.80;;;;;;;;;;4245779;28;20062;-62
2023/04/09 00:27:48;;;;;;;14.20;13.45;;;;;;;;;;4245108;28;20046;-62
2023/04/09 00:30:08;;;;;;;11.85;11.05;;;;;;;;;;4245163;28;20041;-62
2023/04/09 00:32:28;;;;;;;13.75;12.88;;;;;;;;;;4243657;28;20085;-62
2023/04/09 00:34:49;;;;;;;10.65;10.32;;;;;;;;;;4245700;28;20119;-62
2023/04/09 00:37:09;;;;;;;11.63;11.13;;;;;;;;;;4246975;27;20235;-62
2023/04/09 00:39:29;;;;;;;11.90;11.45;;;;;;;;;;4247992;28;20055;-62
2023/04/09 00:41:50;;;;;;;11.10;10.63;;;;;;;;;;4242727;28;20046;-62
2023/04/09 00:44:10;;;;;;;11.80;11.50;;;;;;;;;;4244317;28;20100;-63
2023/04/09 00:46:31;;;;;;;12.52;11.77;;;;;;;;;;4247727;28;20054;-62
2023/04/09 00:48:51;;;;;;;12.27;11.80;;;;;;;;;;4247566;28;20043;-62
2023/04/09 00:51:12;;;;;;;11.45;11.05;;;;;;;;;;4243115;28;20074;-62
2023/04/09 00:53:32;;;;;;;10.20;9.68;;;;;;;;;;4247645;28;20054;-62
2023/04/09 00:55:54;;;;;;;12.52;10.98;;;;;;;;;;4251875;28;20042;-62
2023/04/09 00:58:15;;;;;;;12.33;11.73;;;;;;;;;;4250947;28;20074;-62
2023/04/09 01:00:35;;;;;;;12.88;12.40;;;;;;;;;;4250490;28;20065;-58
2023/04/09 01:02:57;;;;;;;11.13;10.50;;;;;;;;;;4247965;28;20088;-58
2023/04/09 01:05:17;;;;;;;14.23;13.50;;;;;;;;;;4249353;28;20054;-58
2023/04/09 01:07:56;;;;;;;12.02;11.60;;;;;;;;;;4249902;28;20050;-58
2023/04/09 01:10:19;;;;;;;14.18;13.10;;;;;;;;;;4248900;28;20038;-58
2023/04/09 01:12:40;;;;;;;14.80;13.80;;;;;;;;;;4246907;28;20078;-58
2023/04/09 01:15:10;;;;;;;13.57;12.93;;;;;;;;;;4245810;28;20051;-58
2023/04/09 01:17:33;;;;;;;12.88;12.25;;;;;;;;;;4248575;28;20039;-58
2023/04/09 01:19:53;;;;;;;15.27;14.60;;;;;;;;;;4248771;28;20054;-58
2023/04/09 01:22:20;;;;;;;12.27;11.57;;;;;;;;;;4247863;28;20050;-58
2023/04/09 01:24:56;;;;;;;13.70;12.70;;;;;;;;;;4248249;28;20231;-58
2023/04/09 01:27:17;;;;;;;13.25;12.65;;;;;;;;;;4247597;28;20053;-59
2023/04/09 01:29:56;;;;;;;12.32;11.70;;;;;;;;;;4250357;28;20054;-58
2023/04/09 01:32:18;;;;;;;12.38;11.52;;;;;;;;;;4248802;28;20049;-58
2023/04/09 01:34:40;;;;;;;13.32;12.60;;;;;;;;;;4247362;28;20050;-58
2023/04/09 01:37:04;;;;;;;14.77;13.90;;;;;;;;;;4246190;27;20247;-58
2023/04/09 01:39:25;;;;;;;12.52;11.93;;;;;;;;;;4253541;28;20041;-59
2023/04/09 01:41:49;;;;;;;12.77;12.35;;;;;;;;;;4248173;28;20078;-58
2023/04/09 01:44:11;;;;;;;11.43;11.02;;;;;;;;;;4245554;28;20400;-58
2023/04/09 01:46:34;;;;;;;12.50;11.65;;;;;;;;;;4244929;28;20374;-58
2023/04/09 01:48:55;;;;;;;11.43;11.10;;;;;;;;;;4251878;28;20369;-58
2023/04/09 01:51:16;;;;;;;11.32;10.98;;;;;;;;;;4251706;28;20076;-59
2023/04/09 01:53:36;;;;;;;10.55;10.20;;;;;;;;;;4247900;28;20115;-58
2023/04/09 01:56:00;;;;;;;11.00;10.70;;;;;;;;;;4245194;28;20060;-58
2023/04/09 01:58:20;;;;;;;11.65;11.35;;;;;;;;;;4246425;28;20395;-58
2023/04/09 02:00:46;;;;;;;12.00;11.57;;;;;;;;;;4245185;28;20401;-58
2023/04/09 02:03:10;;;;;;;10.65;10.35;;;;;;;;;;4247830;28;20094;-58
2023/04/09 02:05:35;;;;;;;12.02;11.52;;;;;;;;;;4246655;28;20301;-58
2023/04/09 02:07:56;;;;;;;12.02;11.73;;;;;;;;;;4245176;28;20088;-58
2023/04/09 02:10:19;;;;;;;12.77;12.10;;;;;;;;;;4248339;28;20050;-58
2023/04/09 02:12:44;;;;;;;11.20;10.52;;;;;;;;;;4247997;28;20043;-59
2023/04/09 02:15:06;;;;;;;15.93;15.23;;;;;;;;;;4247275;28;20042;-58
2023/04/09 02:17:27;;;;;;;11.25;10.95;;;;;;;;;;4246977;28;20436;-58
2023/04/09 02:19:47;;;;;;;10.93;10.63;;;;;;;;;;4247706;28;20068;-58
2023/04/09 02:22:08;;;;;;;10.30;10.10;;;;;;;;;;4246069;28;20141;-58
2023/04/09 02:24:29;;;;;;;12.27;11.88;;;;;;;;;;4248673;28;20430;-58
2023/04/09 02:26:49;;;;;;;10.98;10.68;;;;;;;;;;4247902;28;20055;-58
2023/04/09 02:29:09;;;;;;;10.32;9.95;;;;;;;;;;4245834;28;20107;-58
2023/04/09 02:31:30;;;;;;;10.27;9.93;;;;;;;;;;4244969;28;20056;-58
2023/04/09 02:33:51;;;;;;;9.38;8.98;;;;;;;;;;4247649;28;20084;-58
2023/04/09 02:36:12;;;;;;;9.32;9.10;;;;;;;;;;4246284;28;20104;-57
2023/04/09 02:38:32;;;;;;;9.48;9.25;;;;;;;;;;4245184;28;20110;-58
2023/04/09 02:40:53;;;;;;;10.18;10.00;;;;;;;;;;4233211;28;20427;-58
2023/04/09 02:43:13;;;;;;;10.38;10.05;;;;;;;;;;4247044;28;20054;-58
2023/04/09 02:45:33;;;;;;;9.65;9.50;;;;;;;;;;4246013;28;20070;-58
2023/04/09 02:47:53;;;;;;;9.77;9.63;;;;;;;;;;4246425;28;20050;-59
2023/04/09 02:50:14;;;;;;;11.00;10.60;;;;;;;;;;4245064;28;20133;-58
2023/04/09 02:52:34;;;;;;;10.50;10.10;;;;;;;;;;4243115;28;20065;-58
2023/04/09 02:54:54;;;;;;;8.40;8.10;;;;;;;;;;4245452;28;20080;-57
2023/04/09 02:57:14;;;;;;;9.82;9.63;;;;;;;;;;4248009;28;20125;-58
2023/04/09 02:59:34;;;;;;;10.38;10.18;;;;;;;;;;4245558;28;20050;-58
2023/04/09 03:01:54;;;;;;;9.63;9.43;;;;;;;;;;4244646;28;20428;-58
2023/04/09 03:04:15;;;;;;;10.35;9.77;;;;;;;;;;4248033;28;20042;-58
2023/04/09 03:06:35;;;;;;;9.80;9.27;;;;;;;;;;4235860;28;20115;-58
2023/04/09 03:08:55;;;;;;;10.05;9.77;;;;;;;;;;4244410;28;20081;-58
2023/04/09 03:11:16;;;;;;;11.45;10.88;;;;;;;;;;4247700;28;20054;-59
2023/04/09 03:13:36;;;;;;;11.25;10.63;;;;;;;;;;4245751;28;20237;-58
2023/04/09 03:15:56;;;;;;;11.18;10.95;;;;;;;;;;4246260;28;20058;-58
2023/04/09 03:18:16;;;;;;;11.02;10.70;;;;;;;;;;4246481;28;20096;-58
2023/04/09 03:20:39;;;;;;;9.18;8.88;;;;;;;;;;4245751;28;20043;-58
2023/04/09 03:22:59;;;;;;;;;;;;;;;;;;4245401;28;20088;-57
2023/04/09 03:25:20;;;;;;;13.38;12.60;;;;;;;;;;4250345;28;19959;-57
2023/04/09 03:27:40;;;;;;;9.90;9.65;;;;;;;;;;4231546;28;20046;-58
2023/04/09 03:30:00;;;;;;;9.55;9.05;;;;;;;;;;4244779;28;20080;-58
2023/04/09 03:32:20;;;;;;;8.65;8.45;;;;;;;;;;4242243;28;20080;-58
2023/04/09 03:34:40;;;;;;;10.95;10.65;;;;;;;;;;4247890;28;20084;-58
2023/04/09 03:37:00;;;;;;;9.88;9.68;;;;;;;;;;4249404;27;20050;-58
2023/04/09 03:39:20;;;;;;;10.10;9.93;;;;;;;;;;4247637;28;20042;-58
2023/04/09 03:41:41;;;;;;;11.00;10.65;;;;;;;;;;4243706;28;20065;-57
2023/04/09 03:44:01;;;;;;;11.82;11.32;;;;;;;;;;4249242;28;20072;-58
2023/04/09 03:46:21;;;;;;;13.95;13.43;;;;;;;;;;4245692;28;20084;-58
2023/04/09 03:48:41;;;;;;;13.88;13.23;;;;;;;;;;4247063;28;20058;-57
2023/04/09 03:51:01;;;;;;;13.73;13.18;;;;;;;;;;4245929;28;20107;-58
2023/04/09 03:53:22;;;;;;;13.48;13.07;;;;;;;;;;4244785;28;20054;-58
2023/04/09 03:55:43;;;;;;;15.18;14.38;;;;;;;;;;4245290;28;20054;-58
2023/04/09 03:58:03;;;;;;;14.52;13.95;;;;;;;;;;4246930;28;20054;-58
2023/04/09 04:00:23;;;;;;;15.98;15.05;;;;;;;;;;4247223;28;20054;-58
2023/04/09 04:02:43;;;;;;;14.30;13.60;;;;;;;;;;4245683;28;20065;-58
2023/04/09 04:05:04;;;;;;;14.75;14.27;;;;;;;;;;4246690;28;20038;-58
2023/04/09 04:07:25;;;;;;;15.73;15.32;;;;;;;;;;4245081;28;20085;-58
2023/04/09 04:09:45;;;;;;;14.38;13.75;;;;;;;;;;4249037;28;20054;-58
2023/04/09 04:12:05;;;;;;;16.10;15.63;;;;;;;;;;4247925;28;20042;-57
2023/04/09 04:14:26;;;;;;;14.50;13.85;;;;;;;;;;4244694;28;20055;-58
2023/04/09 04:16:46;;;;;;;13.52;13.02;;;;;;;;;;4245556;28;20042;-58
2023/04/09 04:19:06;;;;;;;13.73;13.32;;;;;;;;;;4249126;28;20266;-58
2023/04/09 04:21:27;;;;;;;12.68;12.38;;;;;;;;;;4246809;28;20046;-58
2023/04/09 04:23:47;;;;;;;12.05;11.73;;;;;;;;;;4242679;28;20042;-58
2023/04/09 04:26:10;;;;;;;11.35;11.05;;;;;;;;;;4244517;28;20058;-58
2023/04/09 04:28:31;;;;;;;12.23;12.02;;;;;;;;;;4246614;28;20080;-58
2023/04/09 04:30:51;;;;;;;10.32;10.20;;;;;;;;;;4251194;28;20061;-58
2023/04/09 04:33:11;;;;;;;11.57;11.38;;;;;;;;;;4247963;28;20074;-58
2023/04/09 04:35:32;;;;;;;11.55;11.10;;;;;;;;;;4249575;28;20074;-58
2023/04/09 04:37:52;;;;;;;11.65;11.20;;;;;;;;;;4248121;28;20106;-58
2023/04/09 04:40:12;;;;;;;12.65;12.30;;;;;;;;;;4252181;28;20065;-58
2023/04/09 04:42:32;;;;;;;10.70;10.57;;;;;;;;;;4250374;28;20050;-57
2023/04/09 04:44:53;;;;;;;12.52;12.23;;;;;;;;;;4248745;28;20239;-58
2023/04/09 04:47:13;;;;;;;15.48;14.88;;;;;;;;;;4243732;28;20082;-57
2023/04/09 04:49:33;;;;;;;14.23;13.63;;;;;;;;;;4248200;28;20369;-58
2023/04/09 04:51:53;;;;;;;12.07;11.68;;;;;;;;;;4250339;28;20086;-58
2023/04/09 04:54:14;;;;;;;12.73;12.43;;;;;;;;;;4248169;28;20317;-58
2023/04/09 04:56:34;;;;;;;10.02;9.82;;;;;;;;;;4246789;28;20377;-58
2023/04/09 04:58:54;;;;;;;12.07;11.68;;;;;;;;;;4249441;28;20046;-59
2023/04/09 05:01:15;;;;;;;11.88;11.60;;;;;;;;;;4236637;28;20389;-59
2023/04/09 05:03:35;;;;;;;14.18;13.63;;;;;;;;;;4250216;28;20265;-60
2023/04/09 05:05:55;;;;;;;11.38;11.18;;;;;;;;;;4241240;28;20090;-59
2023/04/09 05:08:16;;;;;;;18.45;17.10;;;;;;;;;;4247209;28;20061;-59
2023/04/09 05:10:36;;;;;;;22.85;19.90;;;;;;;;;;4248420;28;20093;-59
2023/04/09 05:12:57;;;;;;;22.42;20.50;;;;;;;;;;4248395;28;20092;-60
2023/04/09 05:15:17;;;;;;;20.33;19.40;;;;;;;;;;4248615;28;20365;-59
2023/04/09 05:17:38;;;;;;;22.67;20.92;;;;;;;;;;4245946;28;20047;-59
2023/04/09 05:19:58;;;;;;;20.88;19.50;;;;;;;;;;4247717;28;20050;-60
2023/04/09 05:22:19;;;;;;;18.10;16.92;;;;;;;;;;4248314;28;20085;-60
2023/04/09 05:24:39;;;;;;;25.05;23.52;;;;;;;;;;4249487;28;20055;-60
2023/04/09 05:27:00;;;;;;;22.67;21.60;;;;;;;;;;4248071;28;20139;-59
2023/04/09 05:29:20;;;;;;;14.98;14.55;;;;;;;;;;4248722;28;20117;-60
2023/04/09 05:31:41;;;;;;;15.00;14.55;;;;;;;;;;4246767;28;20042;-60
2023/04/09 05:34:02;;;;;;;15.13;14.57;;;;;;;;;;4250032;28;20053;-59
2023/04/09 05:36:22;;;;;;;13.02;12.65;;;;;;;;;;4248913;28;20072;-59
2023/04/09 05:38:43;;;;;;;11.77;11.65;;;;;;;;;;4248064;28;20120;-59
2023/04/09 05:41:04;;;;;;;11.70;11.43;;;;;;;;;;4245138;28;20428;-59
2023/04/09 05:43:24;;;;;;;11.80;11.60;;;;;;;;;;4254086;28;20045;-60
2023/04/09 05:45:45;;;;;;;12.18;11.98;;;;;;;;;;4248824;28;20056;-60
2023/04/09 05:48:05;;;;;;;9.15;8.95;;;;;;;;;;4246259;28;20054;-59
2023/04/09 05:50:25;;;;;;;10.23;10.13;;;;;;;;;;4248363;28;20064;-60
2023/04/09 05:52:45;;;;;;;11.32;10.77;;;;;;;;;;4249161;28;20355;-60
2023/04/09 05:55:05;;;;;;;9.38;9.18;;;;;;;;;;4249741;28;20120;-60
2023/04/09 05:57:29;;;;;;;10.90;10.70;;;;;;;;;;4247779;28;20051;-60
2023/04/09 05:59:49;;;;;;;12.10;11.68;;;;;;;;;;4245495;28;20039;-60
2023/04/09 06:02:09;;;;;;;10.90;10.43;;;;;;;;;;4243094;28;20082;-59
2023/04/09 06:04:29;;;;;;;9.25;8.82;;;;;;;;;;4246410;28;20046;-59
2023/04/09 06:06:50;;;;;;;11.00;10.80;;;;;;;;;;4248541;28;20374;-60
2023/04/09 06:09:11;;;;;;;9.60;9.50;;;;;;;;;;4246669;28;20042;-60
2023/04/09 06:11:33;;;;;;;8.27;8.07;;;;;;;;;;4245607;28;20092;-59
2023/04/09 06:13:53;;;;;;;10.23;10.02;;;;;;;;;;4247797;28;20243;-60
2023/04/09 06:16:13;;;;;;;11.27;10.98;;;;;;;;;;4246984;28;20396;-59
2023/04/09 06:18:33;;;;;;;10.38;10.15;;;;;;;;;;4248590;28;20136;-60
2023/04/09 06:21:01;;;;;;;9.10;8.90;;;;;;;;;;4247413;28;20038;-60
2023/04/09 06:23:21;;;;;;;9.40;9.20;;;;;;;;;;4247415;28;20042;-59
2023/04/09 06:25:41;;;;;;;6.85;6.75;;;;;;;;;;4245241;28;20077;-60
2023/04/09 06:28:02;;;;;;;7.63;7.43;;;;;;;;;;4247806;28;20099;-59
2023/04/09 06:30:22;;;;;;;6.15;6.05;;;;;;;;;;4247910;28;20085;-61
2023/04/09 06:32:44;;;;;;;10.60;10.13;;;;;;;;;;4245704;28;20103;-60
2023/04/09 06:35:15;;;;;;;15.02;14.07;;;;;;;;;;4250857;28;20290;-59
2023/04/09 06:37:35;;;;;;;12.45;11.85;;;;;;;;;;4242279;28;20096;-59
2023/04/09 06:39:55;;;;;;;12.80;12.25;;;;;;;;;;4247594;28;20078;-60
2023/04/09 06:42:21;;;;;;;10.07;9.70;;;;;;;;;;4249948;28;20230;-59
2023/04/09 06:44:41;;;;;;;10.48;8.43;;;;;;;;;;4254813;28;20350;-60
2023/04/09 06:47:01;;;;;;;10.43;10.02;;;;;;;;;;4248546;28;20050;-60
2023/04/09 06:49:22;;;;;;;11.23;10.43;;;;;;;;;;4243534;28;20073;-60
2023/04/09 06:51:42;;;;;;;11.95;11.25;;;;;;;;;;4251204;28;20084;-60
2023/04/09 06:54:02;;;;;;;12.40;11.77;;;;;;;;;;4250504;28;20157;-59
2023/04/09 06:56:22;;;;;;;12.23;11.70;;;;;;;;;;4243499;28;20076;-60
2023/04/09 06:58:42;;;;;;;9.57;9.15;;;;;;;;;;4249677;28;20047;-60
2023/04/09 07:01:03;;;;;;;10.25;9.75;;;;;;;;;;4251837;28;20091;-60
2023/04/09 07:03:23;;;;;;;9.52;9.20;;;;;;;;;;4246072;28;20081;-60
2023/04/09 07:05:44;;;;;;;10.77;10.38;;;;;;;;;;4245940;28;20083;-60
2023/04/09 07:08:04;;;;;;;12.05;11.43;;;;;;;;;;4248563;28;20107;-59
2023/04/09 07:10:25;;;;;;;9.38;9.18;;;;;;;;;;4249419;28;20107;-60
2023/04/09 07:12:45;;;;;;;14.07;13.20;;;;;;;;;;4246054;28;20088;-59
2023/04/09 07:15:06;;;;;;;9.38;9.10;;;;;;;;;;4248676;28;20038;-60
2023/04/09 07:17:27;;;;;;;9.52;9.18;;;;;;;;;;4247368;28;20103;-60
2023/04/09 07:19:47;;;;;;;11.40;10.90;;;;;;;;;;4244955;28;20115;-60
2023/04/09 07:22:07;;;;;;;11.57;10.73;;;;;;;;;;4247092;28;20397;-59
2023/04/09 07:24:27;;;;;;;13.52;12.50;;;;;;;;;;4249108;28;20042;-59
2023/04/09 07:26:49;;;;;;;10.00;9.60;;;;;;;;;;4244975;28;20281;-59
2023/04/09 07:29:12;;;;;;;9.38;9.07;;;;;;;;;;4248690;28;20042;-60
2023/04/09 07:31:32;;;;;;;5.88;5.78;;;;;;;;;;4248346;28;20077;-59
2023/04/09 07:33:55;;;;;;;9.27;8.88;;;;;;;;;;4248267;28;20050;-60
2023/04/09 07:36:15;;;;;;;6.30;6.20;;;;;;;;;;4242630;28;20366;-59
2023/04/09 07:38:36;;;;;;;8.73;8.38;;;;;;;;;;4246409;28;20043;-60
2023/04/09 07:40:57;;;;;;;8.32;8.02;;;;;;;;;;4246629;28;20066;-59
2023/04/09 07:43:17;;;;;;;8.85;8.32;;;;;;;;;;4245419;28;20080;-59
2023/04/09 07:45:37;;;;;;;8.77;8.32;;;;;;;;;;4242419;28;20042;-59
2023/04/09 07:47:57;;;;;;;7.53;7.18;;;;;;;;;;4243626;28;20372;-59
2023/04/09 07:50:18;;;;;;;7.22;6.93;;;;;;;;;;4245155;28;20042;-59
2023/04/09 07:52:38;;;;;;;5.70;5.50;;;;;;;;;;4245054;28;20235;-59
2023/04/09 07:54:58;;;;;;;6.85;6.70;;;;;;;;;;4244401;28;20114;-60
2023/04/09 07:57:18;;;;;;;6.95;6.75;;;;;;;;;;4243951;28;20362;-59
2023/04/09 07:59:39;;;;;;;6.70;6.60;;;;;;;;;;4245219;28;20223;-60
2023/04/09 08:01:59;;;;;;;4.55;4.45;;;;;;;;;;4246410;28;20349;-59
2023/04/09 08:04:23;;;;;;;5.53;5.43;;;;;;;;;;4244327;28;20082;-59
2023/04/09 08:06:49;;;;;;;4.82;4.32;;;;;;;;;;4244623;28;20054;-60
2023/04/09 08:09:10;;;;;;;4.53;4.43;;;;;;;;;;4248066;28;20057;-60
2023/04/09 08:11:30;;;;;;;4.10;4.00;;;;;;;;;;4248724;28;20107;-59
2023/04/09 08:13:53;;;;;;;3.63;3.53;;;;;;;;;;4243518;28;20047;-59
2023/04/09 08:16:14;;;;;;;4.25;4.15;;;;;;;;;;4245478;28;20087;-59
2023/04/09 08:18:34;;;;;;;4.28;4.18;;;;;;;;;;4246945;28;20050;-60
2023/04/09 08:20:55;;;;;;;4.22;4.13;;;;;;;;;;4249497;28;20058;-60
2023/04/09 08:23:16;;;;;;;3.90;3.80;;;;;;;;;;4243725;28;20051;-59
2023/04/09 08:25:36;;;;;;;4.28;4.07;;;;;;;;;;4243551;28;20092;-60
2023/04/09 08:27:56;;;;;;;3.90;3.80;;;;;;;;;;4245197;28;20209;-60
2023/04/09 08:30:17;;;;;;;4.28;4.28;;;;;;;;;;4246360;28;20041;-59
2023/04/09 08:32:38;;;;;;;4.18;3.88;;;;;;;;;;4241922;28;20473;-60
2023/04/09 08:34:59;;;;;;;4.25;4.15;;;;;;;;;;4247322;28;20119;-60
2023/04/09 08:37:19;;;;;;;3.88;3.78;;;;;;;;;;4241565;28;20047;-59
2023/04/09 08:39:39;;;;;;;5.70;5.50;;;;;;;;;;4245057;28;20457;-59
2023/04/09 08:42:02;;;;;;;9.70;9.50;;;;;;;;;;4242707;28;20411;-60
2023/04/09 08:44:25;;;;;;;4.70;4.60;;;;;;;;;;4246930;28;20041;-60
2023/04/09 08:46:45;;;;;;;3.78;3.78;;;;;;;;;;4250336;28;20235;-60
2023/04/09 08:49:08;;;;;;;4.28;3.92;;;;;;;;;;4243636;28;20362;-60
2023/04/09 08:51:28;;;;;;;4.07;3.97;;;;;;;;;;4247836;28;20042;-60
2023/04/09 08:53:52;;;;;;;4.03;3.85;;;;;;;;;;4246773;28;20042;-60
2023/04/09 08:56:12;;;;;;;4.70;4.60;;;;;;;;;;4242966;28;20066;-59
2023/04/09 08:58:33;;;;;;;4.60;4.40;;;;;;;;;;4245125;28;20054;-60
2023/04/09 09:00:53;;;;;;;4.65;4.55;;;;;;;;;;4242749;28;20080;-60
2023/04/09 09:03:14;;;;;;;3.47;3.45;;;;;;;;;;4247726;28;20073;-59
2023/04/09 09:05:42;;;;;;;4.38;4.28;;;;;;;;;;4247029;28;20130;-59
2023/04/09 09:08:02;;;;;;;7.10;5.68;;;;;;;;;;4245665;28;20058;-59
2023/04/09 09:10:36;;;;;;;4.07;3.90;;;;;;;;;;4250761;28;20045;-60
2023/04/09 09:12:56;;;;;;;5.22;4.97;;;;;;;;;;4242696;28;20362;-60
2023/04/09 09:15:29;;;;;;;3.90;3.80;;;;;;;;;;4248808;27;20088;-60
2023/04/09 09:17:55;;;;;;;3.92;3.75;;;;;;;;;;4249547;28;20238;-59
2023/04/09 09:20:19;;;;;;;3.65;3.38;;;;;;;;;;4246466;28;20076;-60
2023/04/09 09:22:51;;;;;;;2.90;2.80;;;;;;;;;;4248365;28;20111;-59
2023/04/09 09:25:15;;;;;;;3.25;3.08;;;;;;;;;;4249313;28;20034;-59
2023/04/09 09:27:38;;;;;;;3.70;3.70;;;;;;;;;;4249240;28;20050;-60
2023/04/09 09:29:59;;;;;;;3.10;2.90;;;;;;;;;;4247738;28;20038;-59
2023/04/09 09:32:22;;;;;;;3.28;3.22;;;;;;;;;;4249612;28;20377;-60
2023/04/09 09:34:42;;;;;;;5.80;5.43;;;;;;;;;;4251425;28;20046;-60
2023/04/09 09:37:04;;;;;;;4.35;4.25;;;;;;;;;;4246377;27;20102;-60
2023/04/09 09:39:43;;;;;;;5.25;5.07;;;;;;;;;;4246011;28;20080;-59
2023/04/09 09:42:07;;;;;;;4.22;2.88;;;;;;;;;;4249137;28;20059;-59
2023/04/09 09:44:31;;;;;;;4.13;4.03;;;;;;;;;;4250379;28;20377;-60
2023/04/09 09:46:52;;;;;;;4.70;4.47;;;;;;;;;;4243050;28;20051;-59
2023/04/09 09:49:12;;;;;;;4.10;4.00;;;;;;;;;;4244827;28;20077;-60
2023/04/09 09:51:33;;;;;;;5.53;5.43;;;;;;;;;;4247387;28;20103;-60
2023/04/09 09:53:55;;;;;;;3.55;3.45;;;;;;;;;;4247617;28;20047;-59
2023/04/09 09:56:18;;;;;;;3.53;3.42;;;;;;;;;;4245243;28;20133;-59
2023/04/09 09:58:45;;;;;;;7.25;5.00;;;;;;;;;;4249558;28;20046;-60
2023/04/09 10:01:10;;;;;;;2.90;2.80;;;;;;;;;;4244925;28;20128;-60
2023/04/09 10:03:31;;;;;;;3.28;3.17;;;;;;;;;;4251091;28;20230;-60
2023/04/09 10:05:52;;;;;;;2.95;2.85;;;;;;;;;;4251251;28;20045;-60
2023/04/09 10:08:13;;;;;;;2.60;2.50;;;;;;;;;;4247386;28;20235;-60
2023/04/09 10:10:33;;;;;;;2.75;2.75;;;;;;;;;;4244837;28;20416;-60
2023/04/09 10:12:55;;;;;;;3.33;3.33;;;;;;;;;;4250987;28;20046;-60
2023/04/09 10:15:15;;;;;;;2.75;2.50;;;;;;;;;;4247873;28;20137;-60
2023/04/09 10:17:35;;;;;;;3.08;3.08;;;;;;;;;;4248063;28;20385;-59
2023/04/09 10:20:05;;;;;;;3.10;3.10;;;;;;;;;;4250491;28;20050;-59
2023/04/09 10:22:26;;;;;;;17.23;15.45;;;;;;;;;;4251958;28;20058;-59
2023/04/09 10:24:46;;;;;;;2.67;2.58;;;;;;;;;;4249604;28;20107;-60
2023/04/09 10:27:14;;;;;;;3.40;3.40;;;;;;;;;;4248180;28;20415;-60
2023/04/09 10:29:41;;;;;;;4.90;4.32;;;;;;;;;;4248883;28;20057;-59
2023/04/09 10:32:10;;;;;;;3.90;3.78;;;;;;;;;;4250576;28;20043;-59
2023/04/09 10:34:34;;;;;;;2.67;2.53;;;;;;;;;;4246791;28;20080;-60
2023/04/09 10:36:58;;;;;;;2.50;2.50;;;;;;;;;;4246804;28;20057;-59
2023/04/09 10:39:19;;;;;;;2.80;2.60;;;;;;;;;;4249565;28;20084;-59
2023/04/09 10:41:40;;;;;;;2.45;2.25;;;;;;;;;;4244181;28;20050;-59
2023/04/09 10:44:05;;;;;;;2.40;2.40;;;;;;;;;;4244809;28;20106;-59
2023/04/09 10:46:35;;;;;;;3.08;2.88;;;;;;;;;;4243129;28;20103;-59
2023/04/09 10:49:12;;;;;;;2.10;2.10;;;;;;;;;;4247315;28;20042;-59
2023/04/09 10:51:37;;;;;;;2.58;2.58;;;;;;;;;;4241671;28;20051;-59
2023/04/09 10:53:57;;;;;;;2.30;2.30;;;;;;;;;;4242036;28;20047;-59
2023/04/09 10:56:17;;;;;;;2.47;2.30;;;;;;;;;;4242093;28;20105;-60
2023/04/09 10:58:37;;;;;;;2.53;2.45;;;;;;;;;;4242112;28;20035;-60
2023/04/09 11:01:01;;;;;;;1.70;1.70;;;;;;;;;;4242601;28;20377;-60
2023/04/09 11:03:21;;;;;;;2.08;2.08;;;;;;;;;;4242807;28;20092;-60
2023/04/09 11:05:43;;;;;;;2.35;2.25;;;;;;;;;;4242448;28;20120;-60
2023/04/09 11:08:21;;;;;;;2.13;2.03;;;;;;;;;;4243214;28;20050;-59
2023/04/09 11:10:43;;;;;;;1.80;1.80;;;;;;;;;;4244088;28;20042;-60
2023/04/09 11:13:04;;;;;;;2.38;2.20;;;;;;;;;;4249668;28;20085;-59
2023/04/09 11:15:24;;;;;;;2.97;2.88;;;;;;;;;;4244526;28;20046;-60
2023/04/09 11:17:45;;;;;;;2.22;2.20;;;;;;;;;;4249105;28;20085;-59
2023/04/09 11:20:06;;;;;;;1.77;1.70;;;;;;;;;;4250535;28;20348;-60
2023/04/09 11:22:28;;;;;;;1.60;1.60;;;;;;;;;;4242363;28;20046;-59
2023/04/09 11:24:49;;;;;;;2.28;2.00;;;;;;;;;;4247283;28;20041;-60
2023/04/09 11:27:10;;;;;;;1.85;1.75;;;;;;;;;;4244902;28;20074;-60
2023/04/09 11:29:30;;;;;;;3.05;2.03;;;;;;;;;;4247279;28;20084;-60
2023/04/09 11:31:50;;;;;;;1.55;1.55;;;;;;;;;;4247792;28;20074;-60
2023/04/09 11:34:11;;;;;;;1.40;1.40;;;;;;;;;;4246302;28;20089;-60
2023/04/09 11:36:34;;;;;;;1.67;1.67;;;;;;;;;;4249838;27;20357;-60
2023/04/09 11:38:55;;;;;;;1.80;1.70;;;;;;;;;;4243531;28;20050;-60
2023/04/09 11:41:15;;;;;;;1.35;1.30;;;;;;;;;;4245327;28;20043;-60
2023/04/09 11:43:36;;;;;;;1.75;1.70;;;;;;;;;;4247286;28;20076;-60
2023/04/09 11:45:56;;;;;;;1.35;1.35;;;;;;;;;;4246516;28;20042;-60
2023/04/09 11:48:18;;;;;;;1.80;1.77;;;;;;;;;;4241431;28;20136;-60
2023/04/09 11:50:38;;;;;;;1.75;1.75;;;;;;;;;;4247860;28;20070;-60
2023/04/09 11:52:58;;;;;;;1.50;1.50;;;;;;;;;;4246934;28;20050;-60
2023/04/09 11:55:23;;;;;;;1.70;1.70;;;;;;;;;;4245878;28;20076;-60
2023/04/09 11:57:46;;;;;;;1.73;1.73;;;;;;;;;;4242281;28;20038;-60
2023/04/09 12:00:07;;;;;;;1.92;1.92;;;;;;;;;;4247777;28;20046;-59
2023/04/09 12:02:29;;;;;;;1.73;1.73;;;;;;;;;;4246678;28;20046;-60
2023/04/09 12:04:50;;;;;;;1.60;1.60;;;;;;;;;;4245091;28;20362;-60
2023/04/09 12:07:10;;;;;;;1.92;1.92;;;;;;;;;;4245497;28;20054;-60
2023/04/09 12:09:30;;;;;;;1.70;1.70;;;;;;;;;;4246019;28;20046;-59
2023/04/09 12:11:50;;;;;;;1.80;1.80;;;;;;;;;;4243791;28;20074;-60
2023/04/09 12:14:15;;;;;;;1.83;1.83;;;;;;;;;;4244131;28;20361;-59
2023/04/09 12:16:35;;;;;;;1.80;1.70;;;;;;;;;;4247695;28;20235;-60
2023/04/09 12:18:55;;;;;;;1.60;1.48;;;;;;;;;;4244823;28;20074;-60
2023/04/09 12:21:16;;;;;;;1.70;1.70;;;;;;;;;;4248061;28;20062;-60
2023/04/09 12:23:39;;;;;;;2.22;2.20;;;;;;;;;;4251630;28;20047;-60
2023/04/09 12:26:00;;;;;;;2.15;2.15;;;;;;;;;;4242049;28;20388;-60
2023/04/09 12:28:20;;;;;;;2.03;2.03;;;;;;;;;;4246535;28;20049;-60
2023/04/09 12:30:40;;;;;;;1.75;1.75;;;;;;;;;;4248277;28;20046;-59
2023/04/09 12:33:01;;;;;;;2.28;2.28;;;;;;;;;;4247918;28;20089;-59
2023/04/09 12:35:22;;;;;;;2.20;2.20;;;;;;;;;;4241774;28;20226;-59
2023/04/09 12:37:43;;;;;;;2.40;2.40;;;;;;;;;;4246836;28;20145;-60
2023/04/09 12:40:04;;;;;;;2.33;2.22;;;;;;;;;;4244739;28;20088;-59
2023/04/09 12:42:24;;;;;;;2.17;2.17;;;;;;;;;;4245580;28;20080;-59
2023/04/09 12:44:45;;;;;;;1.95;1.95;;;;;;;;;;4241195;28;20069;-59
2023/04/09 12:47:06;;;;;;;2.40;2.40;;;;;;;;;;4242403;28;20120;-60
2023/04/09 12:49:26;;;;;;;2.28;2.28;;;;;;;;;;4241634;28;20092;-59
2023/04/09 12:51:47;;;;;;;2.28;2.17;;;;;;;;;;4248962;28;20039;-60
2023/04/09 12:54:07;;;;;;;2.38;2.38;;;;;;;;;;4244297;28;20081;-59
2023/04/09 12:56:27;;;;;;;2.00;2.00;;;;;;;;;;4248898;28;20104;-59
2023/04/09 12:58:50;;;;;;;2.17;2.08;;;;;;;;;;4244464;28;20073;-60
2023/04/09 13:01:10;;;;;;;2.55;2.55;;;;;;;;;;4249788;28;20140;-60
2023/04/09 13:03:31;;;;;;;2.28;2.28;;;;;;;;;;4245429;27;20055;-60
2023/04/09 13:05:51;;;;;;;2.58;2.58;;;;;;;;;;4247482;28;20062;-60
2023/04/09 13:08:11;;;;;;;2.08;2.08;;;;;;;;;;4247389;28;20051;-60
2023/04/09 13:10:32;;;;;;;1.88;1.88;;;;;;;;;;4250200;28;20083;-60
2023/04/09 13:12:52;;;;;;;2.20;2.20;;;;;;;;;;4244729;28;20043;-60
2023/04/09 13:15:13;;;;;;;2.45;2.45;;;;;;;;;;4243601;28;20389;-60
2023/04/09 13:17:33;;;;;;;2.50;2.30;;;;;;;;;;4252695;28;20080;-60
2023/04/09 13:19:54;;;;;;;1.80;1.80;;;;;;;;;;4248509;28;20050;-59
2023/04/09 13:22:14;;;;;;;1.90;1.85;;;;;;;;;;4246783;28;20043;-59
2023/04/09 13:24:35;;;;;;;2.85;2.85;;;;;;;;;;4245821;28;20079;-59
2023/04/09 13:26:55;;;;;;;1.98;1.98;;;;;;;;;;4251750;28;20295;-60
2023/04/09 13:29:16;;;;;;;2.30;2.30;;;;;;;;;;4250781;28;20393;-60
2023/04/09 13:31:36;;;;;;;1.75;1.75;;;;;;;;;;4250878;28;20042;-59
2023/04/09 13:33:57;;;;;;;2.13;2.13;;;;;;;;;;4250143;28;20067;-59
2023/04/09 13:36:17;;;;;;;2.30;2.30;;;;;;;;;;4248430;27;20041;-59
2023/04/09 13:38:38;;;;;;;1.55;1.55;;;;;;;;;;4249086;28;20148;-59
2023/04/09 13:40:58;;;;;;;1.90;1.90;;;;;;;;;;4252020;28;20111;-60
2023/04/09 13:43:18;;;;;;;1.80;1.80;;;;;;;;;;4250705;28;20243;-60
2023/04/09 13:45:38;;;;;;;2.58;2.58;;;;;;;;;;4250913;28;20058;-60
2023/04/09 13:47:58;;;;;;;2.30;2.30;;;;;;;;;;4250214;28;20108;-60
2023/04/09 13:50:18;;;;;;;1.90;1.90;;;;;;;;;;4244681;28;20111;-59
2023/04/09 13:52:38;;;;;;;2.00;2.00;;;;;;;;;;4250903;28;20046;-59
2023/04/09 13:54:58;;;;;;;2.15;2.15;;;;;;;;;;4249967;28;20070;-59
2023/04/09 13:57:19;;;;;;;2.05;2.05;;;;;;;;;;4236543;28;20049;-59